Time;durP1;ratioP1;P1;durP2;ratioP2;P2;SDS_P1;SDS_P2;PMS_P1;PMS_P2;Temp;Humidity;BMP_temperature;BMP_pressure;BME280_temperature;BME280_humidity;BME280_pressure;Samples;Min_cycle;Max_cycle;Signal;HPM_P1;HPM_P2
2022/11/12 00:00:28;;;;;;;10.15;5.82;;;;;;;;;;5062129;28;20481;-87
2022/11/12 00:02:57;;;;;;;7.13;5.03;;;;;;;;;;5060284;28;20676;-89
2022/11/12 00:05:24;;;;;;;8.20;5.70;;;8.20;63.00;;;;;;5058217;28;20791;-88
2022/11/12 00:07:51;;;;;;;8.10;6.47;;;8.30;99.80;;;;;;5058269;28;20270;-88
2022/11/12 00:10:18;;;;;;;8.00;6.07;;;8.20;1.00;;;;;;5061773;28;20432;-88
2022/11/12 00:12:45;;;;;;;9.67;6.70;;;8.30;1.00;;;;;;5064163;28;20673;-88
2022/11/12 00:15:12;;;;;;;9.32;5.85;;;8.30;1.00;;;;;;5064346;28;20481;-88
2022/11/12 00:17:39;;;;;;;8.63;5.63;;;8.20;1.00;;;;;;5063787;28;20762;-88
2022/11/12 00:20:09;;;;;;;10.07;6.07;;;8.00;1.00;;;;;;5059356;28;20507;-88
2022/11/12 00:22:36;;;;;;;8.32;5.90;;;8.30;1.00;;;;;;5058972;28;20424;-88
2022/11/12 00:25:03;;;;;;;7.77;5.70;;;8.20;1.00;;;;;;5058653;28;20310;-88
2022/11/12 00:27:34;;;;;;;6.90;5.20;;;8.60;1.00;;;;;;5060144;28;20462;-89
2022/11/12 00:30:00;;;;;;;7.70;5.50;;;8.20;1.00;;;;;;5060312;28;20442;-88
2022/11/12 00:32:28;;;;;;;8.73;5.87;;;;;;;;;;5059971;28;20446;-88
2022/11/12 00:34:55;;;;;;;7.53;5.23;;;;;;;;;;5059832;28;20885;-89
2022/11/12 00:37:24;;;;;;;7.50;5.47;;;;;;;;;;5059300;28;20501;-87
2022/11/12 00:39:51;;;;;;;7.27;5.10;;;;;;;;;;5058922;28;20540;-87
2022/11/12 00:42:18;;;;;;;9.70;5.50;;;;;;;;;;5062478;28;20438;-87
2022/11/12 00:44:45;;;;;;;9.63;5.33;;;;;;;;;;5067052;28;20497;-88
2022/11/12 00:47:13;;;;;;;7.00;5.03;;;;;;;;;;5068253;28;20475;-88
2022/11/12 00:49:40;;;;;;;5.23;4.73;;;;;;;;;;5063821;28;20504;-87
2022/11/12 00:52:07;;;;;;;9.23;5.60;;;;;;;;;;5060755;28;20416;-88
2022/11/12 00:54:39;;;;;;;11.10;5.10;;;;;;;;;;5061866;28;20499;-88
2022/11/12 00:57:06;;;;;;;7.20;5.80;;;;;;;;;;5059346;28;20480;-87
2022/11/12 00:59:32;;;;;;;5.20;4.70;;;8.30;1.00;;;;;;5058945;28;20487;-87
2022/11/12 01:02:04;;;;;;;5.60;5.00;;;7.70;99.90;;;;;;5057737;28;20424;-87
2022/11/12 01:04:31;;;;;;;6.90;5.70;;;;;;;;;;5062153;28;20466;-86
2022/11/12 01:06:58;;;;;;;7.43;5.90;;;7.90;99.90;;;;;;5072515;28;20458;-86
2022/11/12 01:09:24;;;;;;;5.95;5.32;;;6.90;99.90;;;;;;5068209;28;20199;-86
2022/11/12 01:11:53;;;;;;;5.27;4.80;;;8.20;86.30;;;;;;5062806;28;20289;-87
2022/11/12 01:14:20;;;;;;;8.20;5.10;;;8.30;99.90;;;;;;5060369;28;20454;-87
2022/11/12 01:16:46;;;;;;;6.33;5.37;;;8.10;1.00;;;;;;5067684;28;20510;-87
2022/11/12 01:19:13;;;;;;;5.20;4.70;;;8.40;1.00;;;;;;5066186;28;20541;-87
2022/11/12 01:21:43;;;;;;;6.20;5.43;;;8.10;1.00;;;;;;5061204;28;20974;-86
2022/11/12 01:24:13;;;;;;;5.37;4.90;;;8.00;99.90;;;;;;5058646;28;20994;-87
2022/11/12 01:26:40;;;;;;;6.23;5.07;;;8.20;99.90;;;;;;5063470;28;20477;-87
2022/11/12 01:29:10;;;;;;;5.45;4.93;;;8.00;99.90;;;;;;5060737;28;20482;-86
2022/11/12 01:31:39;;;;;;;5.10;4.60;;;8.00;99.90;;;;;;5059194;28;20227;-87
2022/11/12 01:34:08;;;;;;;6.60;4.20;;;8.10;99.90;;;;;;5059672;28;20663;-86
2022/11/12 01:36:39;;;;;;;5.30;4.80;;;8.10;51.20;;;;;;5058639;28;20458;-86
2022/11/12 01:39:09;;;;;;;5.00;4.57;;;8.00;99.90;;;;;;5061009;28;20466;-87
2022/11/12 01:41:39;;;;;;;5.97;4.70;;;7.90;1.00;;;;;;5060617;28;20207;-86
2022/11/12 01:44:23;;;;;;;9.70;5.50;;;8.10;1.00;;;;;;5063169;28;20779;-87
2022/11/12 02:05:11;;;;;;;6.20;4.67;;;7.80;99.90;;;;;;5063099;28;20416;-88
2022/11/12 02:07:42;;;;;;;6.87;4.67;;;7.60;99.90;;;;;;5065688;28;20473;-88
2022/11/12 02:10:10;;;;;;;8.30;4.70;;;;;;;;;;5065570;28;20492;-87
2022/11/12 02:30:05;;;;;;;;;;;;;;;;;;;;;
2022/11/12 02:36:47;;;;;;;5.90;4.43;;;7.80;1.00;;;;;;4970423;28;20449;-88
2022/11/12 02:39:40;;;;;;;5.20;4.28;;;;;;;;;;4933863;28;20206;-85
2022/11/12 02:48:23;;;;;;;4.70;4.30;;;7.90;99.90;;;;;;5009455;28;20291;-89
2022/11/12 02:51:08;;;;;;;4.18;3.78;;;;;;;;;;4957767;28;20265;-88
2022/11/12 02:57:19;;;;;;;5.30;4.80;;;;;;;;;;5000981;28;20430;-88
2022/11/12 02:59:52;;;;;;;5.60;4.47;;;;;;;;;;5058151;28;20427;-88
2022/11/12 03:15:06;;;;;;;;;;;;;;;;;;;;;
2022/11/12 03:58:35;;;;;;;6.32;5.40;;;7.30;94.30;;;;;;5038888;22;20240;-85
2022/11/12 04:01:02;;;;;;;8.25;4.88;;;7.20;86.10;;;;;;5098065;28;20206;-85
2022/11/12 04:03:29;;;;;;;7.97;5.93;;;7.20;99.90;;;;;;5098089;28;20645;-85
2022/11/12 04:08:41;;;;;;;5.93;4.57;;;7.10;99.90;;;;;;5095342;28;20787;-86
2022/11/12 04:11:11;;;;;;;5.47;4.75;;;7.10;99.90;;;;;;5095361;28;20296;-85
2022/11/12 04:13:40;;;;;;;5.93;5.32;;;7.10;1.00;;;;;;5095592;28;20201;-86
2022/11/12 04:21:53;;;;;;;15.02;5.22;;;7.10;1.00;;;;;;5096022;28;20186;-85
2022/11/12 04:27:08;;;;;;;8.05;5.43;;;6.90;99.90;;;;;;5095588;28;20558;-85
2022/11/12 04:32:22;;;;;;;9.32;5.80;;;6.70;1.00;;;;;;5095459;28;20644;-86
2022/11/12 04:34:48;;;;;;;5.65;4.75;;;6.20;1.00;;;;;;5095922;28;20212;-85
2022/11/12 04:37:15;;;;;;;7.03;5.53;;;6.70;99.90;;;;;;5095642;28;20705;-86
2022/11/12 04:39:42;;;;;;;5.07;4.57;;;6.80;57.20;;;;;;5095962;28;20198;-86
2022/11/12 04:45:00;;;;;;;11.57;5.05;;;6.60;1.00;;;;;;5095425;28;20562;-86
2022/11/12 04:47:28;;;;;;;6.68;5.93;;;6.60;1.00;;;;;;5095462;28;20326;-87
2022/11/12 04:49:55;;;;;;;4.72;4.22;;;6.80;1.00;;;;;;5095250;28;20236;-87
2022/11/12 04:52:22;;;;;;;6.35;4.72;;;6.50;1.00;;;;;;5096012;28;20292;-87
2022/11/12 04:54:48;;;;;;;5.93;5.35;;;6.10;99.90;;;;;;5101441;28;20311;-85
2022/11/12 04:57:15;;;;;;;8.45;5.45;;;6.50;82.00;;;;;;5100445;28;20230;-86
2022/11/12 04:59:42;;;;;;;6.80;5.07;;;6.00;99.90;;;;;;5101016;28;20273;-86
2022/11/12 05:02:10;;;;;;;7.93;5.13;;;6.60;99.90;;;;;;5098731;28;20293;-85
2022/11/12 05:04:37;;;;;;;5.82;5.22;;;5.90;99.90;;;;;;5102901;28;20281;-85
2022/11/12 05:07:04;;;;;;;6.63;5.68;;;6.10;99.90;;;;;;5107126;28;20236;-85
2022/11/12 05:09:31;;;;;;;7.65;4.90;;;6.50;99.90;;;;;;5114039;28;20281;-85
2022/11/12 05:11:57;;;;;;;5.63;4.32;;;6.00;99.90;;;;;;5113550;28;20229;-85
2022/11/12 05:14:25;;;;;;;5.80;5.20;;;6.30;99.90;;;;;;5114549;28;20265;-85
2022/11/12 05:16:52;;;;;;;5.35;4.85;;;6.30;99.90;;;;;;5114421;28;20244;-86
2022/11/12 05:19:20;;;;;;;8.07;5.45;;;6.10;99.90;;;;;;5114269;28;20201;-86
2022/11/12 05:22:05;;;;;;;5.70;5.10;;;6.10;99.90;;;;;;5114495;28;20229;-86
2022/11/12 05:24:34;;;;;;;8.55;5.07;;;6.30;99.90;;;;;;5110232;28;20568;-87
2022/11/12 05:27:01;;;;;;;14.75;6.47;;;5.70;99.90;;;;;;5107668;28;20198;-86
2022/11/12 05:29:28;;;;;;;8.50;5.70;;;5.80;99.90;;;;;;5108200;28;20304;-86
2022/11/12 05:31:55;;;;;;;9.40;6.45;;;5.80;99.90;;;;;;5109468;28;20559;-86
2022/11/12 05:34:24;;;;;;;5.57;5.18;;;5.80;99.90;;;;;;5111498;28;20251;-86
2022/11/12 05:36:51;;;;;;;7.45;6.05;;;;;;;;;;5119363;28;20178;-87
2022/11/12 05:39:18;;;;;;;6.00;5.47;;;5.80;99.90;;;;;;5122771;28;20194;-87
2022/11/12 05:41:45;;;;;;;5.88;5.25;;;5.80;99.90;;;;;;5120718;28;20189;-86
2022/11/12 05:44:12;;;;;;;5.90;4.93;;;5.90;99.90;;;;;;5122122;28;20178;-87
2022/11/12 05:46:38;;;;;;;8.05;5.57;;;6.10;99.90;;;;;;5122008;28;20202;-87
2022/11/12 05:49:05;;;;;;;7.57;5.35;;;6.10;99.90;;;;;;5115756;28;20281;-86
2022/11/12 05:51:33;;;;;;;6.75;5.80;;;6.00;99.90;;;;;;5118322;28;20697;-86
2022/11/12 05:54:01;;;;;;;5.80;4.70;;;6.10;99.90;;;;;;5110072;28;20265;-86
2022/11/12 05:56:28;;;;;;;6.93;4.93;;;6.00;99.90;;;;;;5104567;28;20235;-86
2022/11/12 05:58:55;;;;;;;6.07;5.47;;;5.90;99.90;;;;;;5102961;28;20322;-86
2022/11/12 06:01:21;;;;;;;6.50;5.90;;;5.90;99.90;;;;;;5102785;28;20202;-86
2022/11/12 06:03:48;;;;;;;7.47;6.70;;;5.80;99.90;;;;;;5099355;28;20202;-86
2022/11/12 06:06:15;;;;;;;7.20;6.20;;;5.80;99.90;;;;;;5098405;28;20637;-86
2022/11/12 06:08:43;;;;;;;7.93;6.10;;;5.80;99.90;;;;;;5098396;28;20232;-86
2022/11/12 06:11:10;;;;;;;9.00;6.50;;;5.80;99.90;;;;;;5098323;28;20249;-85
2022/11/12 06:13:37;;;;;;;7.25;6.45;;;6.10;99.90;;;;;;5097329;28;20198;-85
2022/11/12 06:16:04;;;;;;;10.02;6.85;;;5.90;99.90;;;;;;5097786;28;20297;-85
2022/11/12 06:18:31;;;;;;;8.27;6.72;;;5.80;99.90;;;;;;5097923;28;20218;-87
2022/11/12 06:21:21;;;;;;;12.00;7.00;;;5.80;99.90;;;;;;5098360;28;20200;-88
2022/11/12 06:23:51;;;;;;;8.07;6.43;;;6.30;99.90;;;;;;5097861;28;20626;-87
2022/11/12 06:26:18;;;;;;;7.10;6.03;;;6.30;99.90;;;;;;5097661;28;20234;-86
2022/11/12 06:28:45;;;;;;;6.07;5.40;;;5.90;99.90;;;;;;5096887;28;20336;-85
2022/11/12 06:31:12;;;;;;;9.27;7.55;;;5.80;99.90;;;;;;5097667;28;20222;-87
2022/11/12 06:33:38;;;;;;;8.25;6.63;;;5.90;99.90;;;;;;5097936;28;20202;-86
2022/11/12 06:36:07;;;;;;;6.45;5.82;;;5.80;99.90;;;;;;5102105;28;20314;-84
2022/11/12 06:38:36;;;;;;;8.35;5.93;;;5.80;99.90;;;;;;5101185;28;20235;-85
2022/11/12 06:41:05;;;;;;;6.82;5.85;;;5.80;99.90;;;;;;5097867;28;20697;-85
2022/11/12 06:43:33;;;;;;;11.75;6.25;;;5.80;99.90;;;;;;5098080;28;20289;-85
2022/11/12 06:46:01;;;;;;;8.48;6.80;;;5.90;99.90;;;;;;5097140;28;20284;-85
2022/11/12 06:48:30;;;;;;;6.18;5.57;;;5.50;99.90;;;;;;5097853;28;20233;-85
2022/11/12 06:50:58;;;;;;;8.02;6.00;;;5.80;99.90;;;;;;5097615;28;20214;-85
2022/11/12 06:53:26;;;;;;;5.60;4.70;;;5.90;99.90;;;;;;5098029;28;20335;-85
2022/11/12 06:55:54;;;;;;;10.68;5.88;;;6.30;99.90;;;;;;5097672;28;20674;-86
2022/11/12 06:58:25;;;;;;;8.52;5.57;;;5.80;99.90;;;;;;5100117;28;20236;-83
2022/11/12 07:00:52;;;;;;;8.18;6.05;;;5.40;99.90;;;;;;5101522;28;20222;-83
2022/11/12 07:03:24;;;;;;;7.72;5.40;;;6.90;99.90;;;;;;5100023;28;20270;-85
2022/11/12 07:05:52;;;;;;;7.90;6.55;;;5.60;99.90;;;;;;5101150;28;20213;-84
2022/11/12 07:08:20;;;;;;;8.05;6.05;;;6.00;99.90;;;;;;5098872;28;20226;-83
2022/11/12 07:10:50;;;;;;;6.85;5.40;;;6.00;99.90;;;;;;5098514;28;20222;-84
2022/11/12 07:13:18;;;;;;;8.48;5.85;;;6.00;99.90;;;;;;5097761;28;20676;-83
2022/11/12 07:15:52;;;;;;;51.38;22.30;;;6.00;99.90;;;;;;5116256;28;20193;-84
2022/11/12 07:18:25;;;;;;;13.65;8.27;;;6.00;99.90;;;;;;5118023;28;20226;-85
2022/11/12 07:20:58;;;;;;;9.20;5.80;;;6.00;99.90;;;;;;5109749;28;20626;-85
2022/11/12 07:23:27;;;;;;;6.13;5.53;;;6.10;99.90;;;;;;5098084;28;20669;-85
2022/11/12 07:26:04;;;;;;;8.68;7.00;;;6.20;99.90;;;;;;5097445;28;20715;-85
2022/11/12 07:28:41;;;;;;;10.25;7.85;;;6.30;99.90;;;;;;5097303;28;20225;-85
2022/11/12 07:31:15;;;;;;;8.82;6.40;;;6.50;99.90;;;;;;5099080;28;20218;-85
2022/11/12 07:33:44;;;;;;;8.45;6.70;;;6.70;99.90;;;;;;5105686;28;20568;-85
2022/11/12 07:36:14;;;;;;;7.28;6.32;;;6.50;99.90;;;;;;5104467;28;20299;-85
2022/11/12 07:38:44;;;;;;;7.72;6.07;;;6.50;99.90;;;;;;5100768;28;20221;-85
2022/11/12 07:41:15;;;;;;;7.90;6.65;;;6.60;99.90;;;;;;5102303;28;20209;-86
2022/11/12 07:43:44;;;;;;;7.05;6.03;;;6.90;99.90;;;;;;5105234;28;20686;-85
2022/11/12 07:46:19;;;;;;;9.35;6.63;;;6.50;99.90;;;;;;5105646;28;20562;-85
2022/11/12 07:48:51;;;;;;;6.57;5.13;;;6.50;99.90;;;;;;5098771;28;20225;-85
2022/11/12 07:51:20;;;;;;;16.70;7.55;;;6.70;99.90;;;;;;5111348;28;20210;-86
2022/11/12 07:53:50;;;;;;;5.60;5.10;;;7.40;99.90;;;;;;5110398;28;20198;-86
2022/11/12 07:56:21;;;;;;;6.38;5.78;;;7.00;99.90;;;;;;5100179;28;20198;-86
2022/11/12 07:58:50;;;;;;;6.05;5.45;;;7.00;99.90;;;;;;5096990;28;20234;-85
2022/11/12 08:01:27;;;;;;;12.50;7.28;;;7.10;99.90;;;;;;5097549;28;20212;-85
2022/11/12 08:03:56;;;;;;;9.73;6.53;;;7.20;99.90;;;;;;5097667;28;20281;-84
2022/11/12 08:06:23;;;;;;;7.43;5.90;;;7.10;99.90;;;;;;5096317;28;20228;-86
2022/11/12 08:08:53;;;;;;;8.02;6.00;;;7.20;99.90;;;;;;5096535;28;20701;-87
2022/11/12 08:11:33;;;;;;;8.88;6.63;;;7.30;99.90;;;;;;5096943;28;20773;-84
2022/11/12 08:23:08;;;;;;;10.35;6.55;;;7.60;1.00;;;;;;5033148;28;20203;-85
2022/11/12 08:25:53;;;;;;;9.38;6.18;;;;;;;;;;5043545;28;20246;-84
2022/11/12 08:31:46;;;;;;;9.88;7.05;;;7.90;1.00;;;;;;5018187;23;20218;-87
2022/11/12 08:34:13;;;;;;;10.50;6.70;;;7.90;1.00;;;;;;5051884;28;20631;-87
2022/11/12 08:36:43;;;;;;;10.18;6.20;;;;;;;;;;5047567;28;20287;-86
2022/11/12 08:39:09;;;;;;;7.10;6.32;;;7.70;1.00;;;;;;5043511;28;20200;-86
2022/11/12 08:41:37;;;;;;;6.82;5.47;;;8.20;1.00;;;;;;5042274;28;20287;-88
2022/11/12 08:44:05;;;;;;;13.50;7.32;;;8.00;99.90;;;;;;5043926;28;20227;-88
2022/11/12 08:46:32;;;;;;;8.07;6.67;;;8.40;99.90;;;;;;5051503;28;20301;-87
2022/11/12 08:49:05;;;;;;;11.20;7.10;;;8.50;99.90;;;;;;5043586;28;20462;-86
2022/11/12 08:51:33;;;;;;;9.40;8.45;;;8.20;99.90;;;;;;5040478;28;20231;-86
2022/11/12 08:54:06;;;;;;;10.53;7.10;;;8.40;25.70;;;;;;5039243;28;20315;-86
2022/11/12 08:56:40;;;;;;;10.17;7.37;;;8.50;99.90;;;;;;5039450;28;20505;-86
2022/11/12 08:59:07;;;;;;;9.63;6.78;;;8.30;1.00;;;;;;5041672;28;20448;-87
2022/11/12 09:35:41;;;;;;;19.67;13.07;;;;;;;;;;4819147;23;20464;-90
2022/11/12 09:45:04;;;;;;;19.50;12.70;;;9.80;99.90;;;;;;4928241;28;20431;-91
2022/11/12 09:57:59;;;;;;;20.43;11.67;;;;;;;;;;4945858;29;20481;-90
2022/11/12 10:00:33;;;;;;;15.90;10.90;;;;;;;;;;5049153;28;20447;-91
2022/11/12 10:10:07;;;;;;;20.60;13.83;;;10.40;99.90;;;;;;5029676;28;20982;-89
2022/11/12 15:39:44;;;;;;;23.30;15.17;;;10.70;99.90;;;;;;4864690;26;20474;-90
2022/11/12 15:42:17;;;;;;;21.40;13.90;;;10.70;99.90;;;;;;5041783;28;20435;-90
2022/11/12 15:44:55;;;;;;;24.10;16.43;;;;;;;;;;5052581;28;20446;-91
2022/11/12 15:51:12;;;;;;;17.50;13.17;;;;;;;;;;4994339;28;20482;-90
2022/11/12 15:57:32;;;;;;;26.13;16.90;;;10.60;99.90;;;;;;4941616;29;20514;-89
2022/11/12 16:01:05;;;;;;;23.30;14.50;;;10.50;99.90;;;;;;4940571;29;20507;-89
2022/11/12 16:04:40;;;;;;;24.37;14.27;;;10.30;99.90;;;;;;4889736;29;20548;-90
2022/11/12 16:07:11;;;;;;;20.47;14.30;;;;;;;;;;4908147;28;20842;-89
2022/11/12 17:16:02;;;;;;;36.00;20.40;;;9.60;99.90;;;;;;4574599;26;20488;-90
2022/11/12 17:39:26;;;;;;;35.23;23.50;;;9.50;99.90;;;;;;4770005;29;20821;-89
2022/11/12 18:00:32;;;;;;;38.53;24.30;;;;;;;;;;5005333;28;20819;-91
2022/11/12 18:03:20;;;;;;;40.27;24.20;;;9.10;99.90;;;;;;5047558;28;20478;-89
2022/11/12 18:06:37;;;;;;;39.50;24.87;;;9.10;99.90;;;;;;5053222;28;20473;-89
2022/11/12 18:09:09;;;;;;;42.63;28.40;;;;;;;;;;5036771;28;20447;-90
2022/11/12 18:11:55;;;;;;;43.15;30.15;;;9.00;99.90;;;;;;5051603;28;20425;-89
2022/11/12 18:14:42;;;;;;;42.10;30.00;;;;;;;;;;5060940;28;20258;-89
2022/11/12 18:17:44;;;;;;;33.90;24.97;;;9.10;99.90;;;;;;5064242;28;20422;-92
2022/11/12 18:25:35;;;;;;;37.60;26.73;;;;;;;;;;5302414;23;20569;-89
2022/11/12 18:32:25;;;;;;;;;;;;;;;;;;;;;
2022/11/12 18:38:56;;;;;;;37.77;26.60;;;8.80;99.90;;;;;;4929387;29;20456;-90
2022/11/12 18:41:31;;;;;;;42.67;31.93;;;8.80;99.90;;;;;;4939986;29;20522;-89
2022/11/12 19:21:19;;;;;;;39.43;25.17;;;8.60;99.90;;;;;;4884960;29;20454;-91
2022/11/12 19:30:54;;;;;;;39.10;27.47;;;;;;;;;;4996117;28;20526;-91
2022/11/12 21:00:39;;;;;;;45.17;31.40;;;;;;;;;;4955732;28;20480;-88
2022/11/12 21:06:30;;;;;;;49.23;31.07;;;8.10;99.90;;;;;;5026164;28;20423;-89
2022/11/12 21:22:07;;;;;;;48.00;32.40;;;8.00;99.90;;;;;;4991729;28;20455;-88
2022/11/12 23:10:44;;;;;;;43.83;27.87;;;;;;;;;;4985147;28;20442;-87
2022/11/12 23:14:14;;;;;;;;;;;;;;;;;;;;;
